Wetterdaten: aktuell Sonntag, 14.04.2024 16:05
Datum Zeit Temp. 2m Feuchte 2m Luftdruck Regen Wind Richtung Richtung Taupunkt Windchill Windben
14.04.2024 16:05 25,2 C 46 % 1019,0 hPa 0,0 l/m 9,7 km/h W-NW 292 12,7 C 24,4 C 15,5 km/h
14.04.2024 16:00 25,2 C 47 % 1019,0 hPa 0,0 l/m 5,0 km/h S 180 13,1 C 25,2 C 15,5 km/h
14.04.2024 15:55 25,2 C 47 % 1019,0 hPa 0,0 l/m 11,9 km/h SW 225 13,1 C 24,0 C 15,5 km/h
14.04.2024 15:50 25,4 C 47 % 1019,0 hPa 0,0 l/m 7,9 km/h W-SW 247 13,3 C 25,0 C 13,3 km/h
14.04.2024 15:45 25,3 C 47 % 1019,0 hPa 0,0 l/m 5,8 km/h W-NW 292 13,2 C 25,3 C 11,2 km/h
14.04.2024 15:40 25,1 C 48 % 1019,0 hPa 0,0 l/m 2,5 km/h NW 315 13,3 C 25,1 C 4,3 km/h
14.04.2024 15:35 25,2 C 47 % 1019,0 hPa 0,0 l/m 11,9 km/h W 270 13,1 C 24,0 C 15,5 km/h
14.04.2024 15:30 25,3 C 47 % 1019,0 hPa 0,0 l/m 5,4 km/h S-SW 202 13,2 C 25,3 C 8,6 km/h
14.04.2024 15:25 25,2 C 47 % 1019,0 hPa 0,0 l/m 6,5 km/h N 360 13,1 C 25,2 C 8,6 km/h
14.04.2024 15:20 25,2 C 49 % 1019,0 hPa 0,0 l/m 3,2 km/h SW 225 13,7 C 25,2 C 8,6 km/h
14.04.2024 15:15 24,8 C 49 % 1019,0 hPa 0,0 l/m 4,3 km/h NW 315 13,3 C 24,8 C 8,6 km/h
14.04.2024 15:10 24,7 C 49 % 1019,0 hPa 0,0 l/m 8,6 km/h W-SW 247 13,3 C 24,1 C 11,2 km/h
14.04.2024 15:05 24,6 C 49 % 1019,0 hPa 0,0 l/m 6,5 km/h SW 225 13,2 C 24,6 C 11,2 km/h
14.04.2024 15:00 24,8 C 49 % 1020,0 hPa 0,0 l/m 7,9 km/h W-NW 292 13,3 C 24,4 C 13,3 km/h
14.04.2024 14:55 24,6 C 51 % 1020,0 hPa 0,0 l/m 3,6 km/h W-SW 247 13,8 C 24,6 C 4,3 km/h
14.04.2024 14:50 24,3 C 50 % 1020,0 hPa 0,0 l/m 5,4 km/h NW 315 13,2 C 24,3 C 11,2 km/h
14.04.2024 14:45 24,2 C 51 % 1020,0 hPa 0,0 l/m 5,8 km/h W 270 13,4 C 24,2 C 6,5 km/h
14.04.2024 14:40 24,2 C 52 % 1020,0 hPa 0,0 l/m 6,8 km/h W-NW 292 13,7 C 24,1 C 11,2 km/h
14.04.2024 14:35 24,2 C 53 % 1020,0 hPa 0,0 l/m 2,5 km/h W-SW 247 14,0 C 24,2 C 4,3 km/h
14.04.2024 14:30 24,2 C 53 % 1020,0 hPa 0,0 l/m 7,6 km/h SW 225 14,0 C 23,9 C 8,6 km/h
14.04.2024 14:25 24,1 C 54 % 1020,0 hPa 0,0 l/m 4,7 km/h SW 225 14,2 C 24,1 C 8,6 km/h
14.04.2024 14:20 23,8 C 53 % 1020,0 hPa 0,0 l/m 8,6 km/h W 270 13,6 C 23,2 C 13,3 km/h
14.04.2024 14:15 23,6 C 54 % 1020,1 hPa 0,0 l/m 4,3 km/h SW 225 13,7 C 23,6 C 8,6 km/h
14.04.2024 14:10 23,6 C 54 % 1020,1 hPa 0,0 l/m 13,3 km/h W-SW 247 13,7 C 21,9 C 17,6 km/h
14.04.2024 14:05 23,7 C 54 % 1020,1 hPa 0,0 l/m 8,6 km/h W 270 13,8 C 23,1 C 11,2 km/h
14.04.2024 14:00 23,9 C 54 % 1020,0 hPa 0,0 l/m 14,4 km/h SW 225 14,0 C 22,1 C 17,6 km/h
14.04.2024 13:55 24,0 C 55 % 1020,0 hPa 0,0 l/m 6,8 km/h S-SW 202 14,4 C 23,9 C 8,6 km/h
14.04.2024 13:50 23,7 C 54 % 1020,1 hPa 0,0 l/m 7,6 km/h W-SW 247 13,8 C 23,3 C 11,2 km/h
14.04.2024 13:45 23,7 C 55 % 1020,1 hPa 0,0 l/m 7,6 km/h W-SW 247 14,1 C 23,3 C 13,3 km/h
14.04.2024 13:40 23,5 C 56 % 1020,1 hPa 0,0 l/m 9,0 km/h SW 225 14,2 C 22,8 C 13,3 km/h
14.04.2024 13:35 23,5 C 55 % 1020,1 hPa 0,0 l/m 6,5 km/h S-SW 202 13,9 C 23,5 C 11,2 km/h
14.04.2024 13:30 23,8 C 55 % 1021,1 hPa 0,0 l/m 10,1 km/h W-SW 247 14,2 C 22,8 C 22,0 km/h
14.04.2024 13:25 23,9 C 54 % 1021,1 hPa 0,0 l/m 6,5 km/h W-SW 247 14,0 C 23,9 C 11,2 km/h
14.04.2024 13:20 23,8 C 55 % 1021,1 hPa 0,0 l/m 2,9 km/h S 180 14,2 C 23,8 C 8,6 km/h
14.04.2024 13:15 23,6 C 55 % 1021,1 hPa 0,0 l/m 6,5 km/h W-SW 247 14,0 C 23,6 C 11,2 km/h
14.04.2024 13:10 23,6 C 56 % 1021,1 hPa 0,0 l/m 6,8 km/h W-SW 247 14,3 C 23,5 C 13,3 km/h
14.04.2024 13:05 23,5 C 56 % 1021,1 hPa 0,0 l/m 5,0 km/h W-SW 247 14,2 C 23,5 C 11,2 km/h
14.04.2024 13:00 23,5 C 55 % 1021,1 hPa 0,0 l/m 13,3 km/h W-SW 247 13,9 C 21,8 C 15,5 km/h
14.04.2024 12:55 23,6 C 56 % 1021,1 hPa 0,0 l/m 4,3 km/h W 270 14,3 C 23,6 C 8,6 km/h
14.04.2024 12:50 23,6 C 57 % 1021,1 hPa 0,0 l/m 2,9 km/h W-SW 247 14,6 C 23,6 C 8,6 km/h
14.04.2024 12:45 23,4 C 56 % 1021,1 hPa 0,0 l/m 6,5 km/h SW 225 14,1 C 23,4 C 8,6 km/h
14.04.2024 12:40 23,4 C 56 % 1021,1 hPa 0,0 l/m 4,0 km/h W-SW 247 14,1 C 23,4 C 11,2 km/h
14.04.2024 12:35 23,4 C 57 % 1021,1 hPa 0,0 l/m 7,6 km/h S-SW 202 14,4 C 23,0 C 11,2 km/h
14.04.2024 12:30 23,1 C 58 % 1021,1 hPa 0,0 l/m 1,8 km/h W-SW 247 14,4 C 23,1 C 4,3 km/h
14.04.2024 12:25 22,9 C 58 % 1021,1 hPa 0,0 l/m 2,9 km/h S-SW 202 14,2 C 22,9 C 6,5 km/h
14.04.2024 12:20 22,8 C 58 % 1021,1 hPa 0,0 l/m 6,8 km/h SW 225 14,1 C 22,7 C 13,3 km/h
14.04.2024 12:15 22,8 C 58 % 1021,1 hPa 0,0 l/m 10,8 km/h SW 225 14,1 C 21,5 C 15,5 km/h
14.04.2024 12:10 22,6 C 59 % 1021,1 hPa 0,0 l/m 11,2 km/h S-SW 202 14,2 C 21,2 C 17,6 km/h
14.04.2024 12:05 22,7 C 59 % 1021,1 hPa 0,0 l/m 10,8 km/h S-SW 202 14,3 C 21,4 C 17,6 km/h
14.04.2024 12:00 22,6 C 60 % 1021,1 hPa 0,0 l/m 4,0 km/h S 180 14,4 C 22,6 C 13,3 km/h
14.04.2024 11:55 22,4 C 61 % 1021,1 hPa 0,0 l/m 7,9 km/h W 270 14,5 C 21,9 C 11,2 km/h
14.04.2024 11:50 21,9 C 62 % 1021,1 hPa 0,0 l/m 8,6 km/h W-SW 247 14,3 C 21,2 C 15,5 km/h
14.04.2024 11:45 21,6 C 61 % 1021,2 hPa 0,0 l/m 4,3 km/h SW 225 13,7 C 21,6 C 8,6 km/h
14.04.2024 11:40 21,2 C 62 % 1021,2 hPa 0,0 l/m 6,5 km/h W-SW 247 13,6 C 21,2 C 13,3 km/h
14.04.2024 11:35 21,0 C 62 % 1021,2 hPa 0,0 l/m 6,1 km/h W-SW 247 13,4 C 21,0 C 8,6 km/h
14.04.2024 11:30 20,6 C 64 % 1021,2 hPa 0,0 l/m 4,7 km/h W 270 13,5 C 20,6 C 8,6 km/h
14.04.2024 11:25 20,4 C 65 % 1021,2 hPa 0,0 l/m 1,8 km/h SW 225 13,6 C 20,4 C 4,3 km/h
14.04.2024 11:20 20,2 C 65 % 1021,2 hPa 0,0 l/m 2,9 km/h W-SW 247 13,4 C 20,2 C 4,3 km/h
14.04.2024 11:15 20,0 C 65 % 1022,2 hPa 0,0 l/m 6,8 km/h SW 225 13,2 C 19,8 C 8,6 km/h
14.04.2024 11:10 20,0 C 66 % 1022,2 hPa 0,0 l/m 4,7 km/h SW 225 13,4 C 20,0 C 8,6 km/h
14.04.2024 11:05 19,8 C 66 % 1022,3 hPa 0,0 l/m 1,4 km/h SW 225 13,3 C 19,8 C 4,3 km/h
14.04.2024 11:00 19,8 C 67 % 1022,3 hPa 0,0 l/m 2,9 km/h W-SW 247 13,5 C 19,8 C 8,6 km/h
14.04.2024 10:55 19,8 C 66 % 1022,3 hPa 0,0 l/m 1,8 km/h SW 225 13,3 C 19,8 C 2,2 km/h
14.04.2024 10:50 19,8 C 67 % 1022,3 hPa 0,0 l/m 1,8 km/h S 180 13,5 C 19,8 C 6,5 km/h
14.04.2024 10:45 19,7 C 67 % 1022,3 hPa 0,0 l/m 4,7 km/h S-SW 202 13,4 C 19,7 C 8,6 km/h
14.04.2024 10:40 19,6 C 68 % 1022,3 hPa 0,0 l/m 6,5 km/h W-SW 247 13,5 C 19,6 C 8,6 km/h
14.04.2024 10:35 19,4 C 69 % 1022,3 hPa 0,0 l/m 1,8 km/h W-SW 247 13,6 C 19,4 C 4,3 km/h
14.04.2024 10:30 19,3 C 70 % 1022,3 hPa 0,0 l/m 2,9 km/h SW 225 13,7 C 19,3 C 8,6 km/h
14.04.2024 10:25 19,2 C 70 % 1022,3 hPa 0,0 l/m 3,2 km/h S-SW 202 13,6 C 19,2 C 4,3 km/h
14.04.2024 10:20 19,1 C 70 % 1022,3 hPa 0,0 l/m 2,5 km/h SW 225 13,5 C 19,1 C 4,3 km/h
14.04.2024 10:15 19,0 C 70 % 1022,3 hPa 0,0 l/m 1,1 km/h S 180 13,4 C 19,0 C 2,2 km/h
14.04.2024 10:10 18,8 C 70 % 1022,3 hPa 0,0 l/m 2,2 km/h W-SW 247 13,2 C 18,8 C 2,2 km/h
14.04.2024 10:05 18,6 C 70 % 1022,3 hPa 0,0 l/m 1,4 km/h S-SW 202 13,0 C 18,6 C 6,5 km/h
14.04.2024 10:00 18,5 C 70 % 1022,3 hPa 0,0 l/m 1,1 km/h SW 225 12,9 C 18,5 C 4,3 km/h
14.04.2024 09:55 18,4 C 70 % 1022,3 hPa 0,0 l/m 1,8 km/h W-SW 247 12,8 C 18,4 C 2,2 km/h
14.04.2024 09:50 18,3 C 71 % 1022,3 hPa 0,0 l/m 2,5 km/h SW 225 12,9 C 18,3 C 4,3 km/h
14.04.2024 09:45 18,1 C 71 % 1022,3 hPa 0,0 l/m 4,3 km/h W-SW 247 12,8 C 18,1 C 6,5 km/h
14.04.2024 09:40 18,0 C 71 % 1022,3 hPa 0,0 l/m 1,1 km/h W-SW 247 12,7 C 18,0 C 2,2 km/h
14.04.2024 09:35 17,8 C 71 % 1022,3 hPa 0,0 l/m 0,7 km/h S-SO 157 12,5 C 17,8 C 2,2 km/h
14.04.2024 09:30 17,6 C 71 % 1022,4 hPa 0,0 l/m 2,9 km/h SW 225 12,3 C 17,6 C 4,3 km/h
14.04.2024 09:25 17,5 C 72 % 1022,4 hPa 0,0 l/m 2,5 km/h S-SW 202 12,4 C 17,5 C 4,3 km/h
14.04.2024 09:20 17,4 C 72 % 1022,4 hPa 0,0 l/m 1,8 km/h S-SW 202 12,3 C 17,4 C 4,3 km/h
14.04.2024 09:15 17,3 C 71 % 1022,4 hPa 0,0 l/m 0,7 km/h W-SW 247 12,0 C 17,3 C 2,2 km/h
14.04.2024 09:10 17,2 C 72 % 1022,4 hPa 0,0 l/m 0,4 km/h S-SW 202 12,1 C 17,2 C 2,2 km/h
14.04.2024 09:05 17,1 C 72 % 1022,4 hPa 0,0 l/m 0,7 km/h S 180 12,0 C 17,1 C 2,2 km/h
14.04.2024 09:00 16,9 C 72 % 1022,4 hPa 0,0 l/m 2,9 km/h S-SW 202 11,8 C 16,9 C 4,3 km/h
14.04.2024 08:55 16,8 C 72 % 1022,4 hPa 0,0 l/m 3,2 km/h S-SO 157 11,7 C 16,8 C 4,3 km/h
14.04.2024 08:50 16,6 C 71 % 1022,4 hPa 0,0 l/m 4,0 km/h S-SO 157 11,3 C 16,6 C 6,5 km/h
14.04.2024 08:45 16,4 C 72 % 1022,4 hPa 0,0 l/m 1,8 km/h S-SW 202 11,3 C 16,4 C 2,2 km/h
14.04.2024 08:40 16,2 C 72 % 1022,4 hPa 0,0 l/m 2,9 km/h S-SW 202 11,1 C 16,2 C 4,3 km/h
14.04.2024 08:35 16,1 C 72 % 1022,4 hPa 0,0 l/m 2,9 km/h S-SO 157 11,0 C 16,1 C 4,3 km/h
14.04.2024 08:30 16,1 C 72 % 1022,4 hPa 0,0 l/m 0,7 km/h S-SO 157 11,0 C 16,1 C 2,2 km/h
14.04.2024 08:25 16,0 C 72 % 1022,4 hPa 0,0 l/m 1,4 km/h O 90 11,0 C 16,0 C 4,3 km/h
14.04.2024 08:20 15,8 C 72 % 1022,4 hPa 0,0 l/m 2,9 km/h SO 135 10,8 C 15,8 C 4,3 km/h
14.04.2024 08:15 15,6 C 73 % 1022,4 hPa 0,0 l/m 1,4 km/h SO 135 10,8 C 15,6 C 2,2 km/h
14.04.2024 08:10 15,5 C 73 % 1022,5 hPa 0,0 l/m 2,5 km/h SW 225 10,7 C 15,5 C 4,3 km/h
14.04.2024 08:05 15,3 C 73 % 1022,5 hPa 0,0 l/m 1,1 km/h SO 135 10,5 C 15,3 C 2,2 km/h
14.04.2024 08:00 15,2 C 73 % 1021,5 hPa 0,0 l/m 1,4 km/h SO 135 10,4 C 15,2 C 2,2 km/h
14.04.2024 07:55 14,9 C 73 % 1022,5 hPa 0,0 l/m 0,0 km/h S-SO 157 10,1 C 14,9 C 2,2 km/h
14.04.2024 07:50 14,7 C 73 % 1021,5 hPa 0,0 l/m 1,4 km/h SO 135 9,9 C 14,7 C 2,2 km/h
14.04.2024 07:45 14,6 C 74 % 1021,5 hPa 0,0 l/m 0,7 km/h S 180 10,0 C 14,6 C 2,2 km/h
14.04.2024 07:40 14,5 C 73 % 1021,5 hPa 0,0 l/m 0,7 km/h SO 135 9,7 C 14,5 C 2,2 km/h
14.04.2024 07:35 14,5 C 73 % 1021,5 hPa 0,0 l/m 2,2 km/h O-SO 112 9,7 C 14,5 C 4,3 km/h
14.04.2024 07:30 14,4 C 73 % 1021,5 hPa 0,0 l/m 0,7 km/h SO 135 9,6 C 14,4 C 2,2 km/h
14.04.2024 07:25 14,4 C 73 % 1021,5 hPa 0,0 l/m 1,8 km/h S-SW 202 9,6 C 14,4 C 2,2 km/h
14.04.2024 07:20 14,4 C 73 % 1021,5 hPa 0,0 l/m 2,2 km/h S-SO 157 9,6 C 14,4 C 4,3 km/h
14.04.2024 07:15 14,4 C 73 % 1021,5 hPa 0,0 l/m 1,4 km/h S 180 9,6 C 14,4 C 2,2 km/h
14.04.2024 07:10 14,4 C 73 % 1021,5 hPa 0,0 l/m 1,1 km/h S-SO 157 9,6 C 14,4 C 2,2 km/h
14.04.2024 07:05 14,4 C 73 % 1021,5 hPa 0,0 l/m 0,7 km/h S 180 9,6 C 14,4 C 2,2 km/h
14.04.2024 07:00 14,4 C 73 % 1021,5 hPa 0,0 l/m 2,2 km/h S-SO 157 9,6 C 14,4 C 2,2 km/h
14.04.2024 06:55 14,5 C 73 % 1021,5 hPa 0,0 l/m 1,8 km/h S-SO 157 9,7 C 14,5 C 2,2 km/h
14.04.2024 06:50 14,6 C 72 % 1021,5 hPa 0,0 l/m 0,0 km/h SO 135 9,6 C 14,6 C 2,2 km/h
14.04.2024 06:45 14,6 C 72 % 1021,5 hPa 0,0 l/m 0,7 km/h SO 135 9,6 C 14,6 C 2,2 km/h
14.04.2024 06:40 14,7 C 72 % 1021,5 hPa 0,0 l/m 1,4 km/h S 180 9,7 C 14,7 C 4,3 km/h
14.04.2024 06:35 14,8 C 72 % 1021,5 hPa 0,0 l/m 1,8 km/h S-SO 157 9,8 C 14,8 C 2,2 km/h
14.04.2024 06:30 14,9 C 71 % 1021,5 hPa 0,0 l/m 0,0 km/h S-SW 202 9,7 C 14,9 C 0,0 km/h
14.04.2024 06:25 14,9 C 71 % 1021,5 hPa 0,0 l/m 2,2 km/h S 180 9,7 C 14,9 C 4,3 km/h
14.04.2024 06:20 15,0 C 71 % 1021,5 hPa 0,0 l/m 1,1 km/h S-SO 157 9,8 C 15,0 C 2,2 km/h
14.04.2024 06:15 15,1 C 71 % 1021,5 hPa 0,0 l/m 2,2 km/h S-SO 157 9,9 C 15,1 C 4,3 km/h
14.04.2024 06:10 15,1 C 71 % 1021,5 hPa 0,0 l/m 1,4 km/h O-SO 112 9,9 C 15,1 C 2,2 km/h
14.04.2024 06:05 15,2 C 71 % 1021,5 hPa 0,0 l/m 1,4 km/h S 180 10,0 C 15,2 C 2,2 km/h
14.04.2024 06:00 15,2 C 70 % 1021,5 hPa 0,0 l/m 2,9 km/h S 180 9,8 C 15,2 C 4,3 km/h
14.04.2024 05:55 15,3 C 70 % 1021,4 hPa 0,0 l/m 1,1 km/h S-SO 157 9,9 C 15,3 C 2,2 km/h
14.04.2024 05:50 15,3 C 70 % 1021,4 hPa 0,0 l/m 2,5 km/h SO 135 9,9 C 15,3 C 4,3 km/h
14.04.2024 05:45 15,4 C 70 % 1021,4 hPa 0,0 l/m 0,7 km/h SO 135 10,0 C 15,4 C 2,2 km/h
14.04.2024 05:40 15,4 C 70 % 1021,4 hPa 0,0 l/m 1,8 km/h SO 135 10,0 C 15,4 C 4,3 km/h
14.04.2024 05:35 15,6 C 69 % 1021,4 hPa 0,0 l/m 1,8 km/h SO 135 9,9 C 15,6 C 2,2 km/h
14.04.2024 05:30 15,6 C 69 % 1021,4 hPa 0,0 l/m 2,2 km/h O-SO 112 9,9 C 15,6 C 2,2 km/h
14.04.2024 05:25 15,6 C 69 % 1021,4 hPa 0,0 l/m 1,1 km/h O-SO 112 9,9 C 15,6 C 2,2 km/h
14.04.2024 05:20 15,7 C 69 % 1021,4 hPa 0,0 l/m 1,1 km/h SO 135 10,0 C 15,7 C 2,2 km/h
14.04.2024 05:15 15,7 C 69 % 1021,4 hPa 0,0 l/m 0,7 km/h S-SO 157 10,0 C 15,7 C 2,2 km/h
14.04.2024 05:10 15,7 C 69 % 1021,4 hPa 0,0 l/m 2,9 km/h SO 135 10,0 C 15,7 C 4,3 km/h
14.04.2024 05:05 15,7 C 70 % 1021,4 hPa 0,0 l/m 2,9 km/h S-SO 157 10,2 C 15,7 C 4,3 km/h
14.04.2024 05:00 15,6 C 70 % 1021,4 hPa 0,0 l/m 2,9 km/h O 90 10,1 C 15,6 C 4,3 km/h
14.04.2024 04:55 15,6 C 69 % 1021,4 hPa 0,0 l/m 1,4 km/h SO 135 9,9 C 15,6 C 4,3 km/h
14.04.2024 04:50 15,6 C 69 % 1021,4 hPa 0,0 l/m 3,6 km/h SO 135 9,9 C 15,6 C 4,3 km/h
14.04.2024 04:45 15,6 C 69 % 1021,4 hPa 0,0 l/m 2,2 km/h SO 135 9,9 C 15,6 C 4,3 km/h
14.04.2024 04:40 15,6 C 69 % 1021,4 hPa 0,0 l/m 0,7 km/h SO 135 9,9 C 15,6 C 2,2 km/h
14.04.2024 04:35 15,7 C 69 % 1021,4 hPa 0,0 l/m 1,4 km/h SO 135 10,0 C 15,7 C 2,2 km/h
14.04.2024 04:30 15,8 C 69 % 1021,4 hPa 0,0 l/m 1,1 km/h S 180 10,1 C 15,8 C 2,2 km/h
14.04.2024 04:25 15,9 C 69 % 1021,4 hPa 0,0 l/m 1,8 km/h O-SO 112 10,2 C 15,9 C 4,3 km/h
14.04.2024 04:20 16,0 C 69 % 1021,4 hPa 0,0 l/m 1,4 km/h SO 135 10,3 C 16,0 C 2,2 km/h
14.04.2024 04:15 16,0 C 69 % 1021,4 hPa 0,0 l/m 1,1 km/h S 180 10,3 C 16,0 C 2,2 km/h
14.04.2024 04:10 16,0 C 69 % 1021,4 hPa 0,0 l/m 0,7 km/h SO 135 10,3 C 16,0 C 2,2 km/h
14.04.2024 04:05 16,0 C 69 % 1021,4 hPa 0,0 l/m 1,8 km/h O 90 10,3 C 16,0 C 4,3 km/h
14.04.2024 04:00 16,0 C 69 % 1021,4 hPa 0,0 l/m 2,9 km/h S-SO 157 10,3 C 16,0 C 8,6 km/h
14.04.2024 03:55 16,1 C 69 % 1021,4 hPa 0,0 l/m 1,4 km/h SO 135 10,4 C 16,1 C 2,2 km/h
14.04.2024 03:50 16,1 C 69 % 1021,4 hPa 0,0 l/m 0,7 km/h SO 135 10,4 C 16,1 C 4,3 km/h
14.04.2024 03:45 16,2 C 69 % 1021,4 hPa 0,0 l/m 1,8 km/h SO 135 10,5 C 16,2 C 2,2 km/h
14.04.2024 03:40 16,2 C 69 % 1021,4 hPa 0,0 l/m 0,7 km/h SO 135 10,5 C 16,2 C 2,2 km/h
14.04.2024 03:35 16,3 C 69 % 1021,4 hPa 0,0 l/m 1,8 km/h S-SO 157 10,6 C 16,3 C 4,3 km/h
14.04.2024 03:30 16,4 C 69 % 1021,4 hPa 0,0 l/m 2,2 km/h S 180 10,7 C 16,4 C 4,3 km/h
14.04.2024 03:25 16,5 C 69 % 1021,4 hPa 0,0 l/m 1,4 km/h S 180 10,8 C 16,5 C 2,2 km/h
14.04.2024 03:20 16,6 C 69 % 1021,4 hPa 0,0 l/m 2,2 km/h SW 225 10,9 C 16,6 C 4,3 km/h
14.04.2024 03:15 16,6 C 69 % 1021,4 hPa 0,0 l/m 5,0 km/h S 180 10,9 C 16,6 C 6,5 km/h
14.04.2024 03:10 16,8 C 69 % 1021,4 hPa 0,0 l/m 1,4 km/h S-SW 202 11,1 C 16,8 C 2,2 km/h
14.04.2024 03:05 16,8 C 69 % 1021,4 hPa 0,0 l/m 0,7 km/h SO 135 11,1 C 16,8 C 2,2 km/h
14.04.2024 03:00 16,9 C 69 % 1021,4 hPa 0,0 l/m 1,8 km/h S-SO 157 11,2 C 16,9 C 2,2 km/h
14.04.2024 02:55 16,9 C 69 % 1021,4 hPa 0,0 l/m 2,9 km/h SO 135 11,2 C 16,9 C 6,5 km/h
14.04.2024 02:50 17,0 C 69 % 1021,4 hPa 0,0 l/m 0,7 km/h S 180 11,3 C 17,0 C 2,2 km/h
14.04.2024 02:45 17,1 C 68 % 1021,4 hPa 0,0 l/m 2,9 km/h S-SO 157 11,1 C 17,1 C 4,3 km/h
14.04.2024 02:40 17,1 C 68 % 1021,4 hPa 0,0 l/m 2,9 km/h SO 135 11,1 C 17,1 C 4,3 km/h
14.04.2024 02:35 17,2 C 68 % 1021,4 hPa 0,0 l/m 1,8 km/h SO 135 11,2 C 17,2 C 2,2 km/h
14.04.2024 02:30 17,2 C 68 % 1021,4 hPa 0,0 l/m 5,4 km/h SO 135 11,2 C 17,2 C 8,6 km/h
14.04.2024 02:25 17,3 C 68 % 1021,4 hPa 0,0 l/m 4,0 km/h S 180 11,3 C 17,3 C 4,3 km/h
14.04.2024 02:20 17,3 C 68 % 1021,4 hPa 0,0 l/m 2,9 km/h S-SO 157 11,3 C 17,3 C 6,5 km/h
14.04.2024 02:15 17,3 C 68 % 1021,4 hPa 0,0 l/m 1,8 km/h SO 135 11,3 C 17,3 C 4,3 km/h
14.04.2024 02:10 17,3 C 68 % 1021,4 hPa 0,0 l/m 1,8 km/h S-SW 202 11,3 C 17,3 C 4,3 km/h
14.04.2024 02:05 17,2 C 69 % 1021,4 hPa 0,0 l/m 4,0 km/h S-SO 157 11,5 C 17,2 C 6,5 km/h
14.04.2024 02:00 17,1 C 69 % 1021,4 hPa 0,0 l/m 2,9 km/h S 180 11,4 C 17,1 C 4,3 km/h
14.04.2024 01:55 16,9 C 70 % 1021,4 hPa 0,0 l/m 4,3 km/h SO 135 11,4 C 16,9 C 6,5 km/h
14.04.2024 01:50 16,7 C 70 % 1021,4 hPa 0,0 l/m 2,5 km/h S-SO 157 11,2 C 16,7 C 4,3 km/h
14.04.2024 01:45 16,6 C 70 % 1021,4 hPa 0,0 l/m 1,4 km/h SO 135 11,1 C 16,6 C 4,3 km/h
14.04.2024 01:40 16,1 C 71 % 1021,4 hPa 0,0 l/m 5,4 km/h O-SO 112 10,8 C 16,1 C 8,6 km/h
14.04.2024 01:35 15,6 C 72 % 1021,4 hPa 0,0 l/m 5,4 km/h S-SO 157 10,6 C 15,6 C 6,5 km/h
14.04.2024 01:30 15,2 C 72 % 1021,5 hPa 0,0 l/m 0,7 km/h SO 135 10,2 C 15,2 C 2,2 km/h
14.04.2024 01:25 15,2 C 71 % 1021,5 hPa 0,0 l/m 1,4 km/h S 180 10,0 C 15,2 C 2,2 km/h
14.04.2024 01:20 15,3 C 70 % 1021,4 hPa 0,0 l/m 1,8 km/h SO 135 9,9 C 15,3 C 2,2 km/h
14.04.2024 01:15 15,4 C 70 % 1021,4 hPa 0,0 l/m 0,0 km/h S-SO 157 10,0 C 15,4 C 0,0 km/h
14.04.2024 01:10 15,6 C 70 % 1021,4 hPa 0,0 l/m 0,0 km/h SO 135 10,1 C 15,6 C 0,0 km/h
14.04.2024 01:05 15,6 C 69 % 1021,4 hPa 0,0 l/m 0,0 km/h SO 135 9,9 C 15,6 C 0,0 km/h
14.04.2024 01:00 15,8 C 69 % 1021,4 hPa 0,0 l/m 1,1 km/h O-SO 112 10,1 C 15,8 C 2,2 km/h
14.04.2024 00:55 16,0 C 69 % 1021,4 hPa 0,0 l/m 0,0 km/h O-SO 112 10,3 C 16,0 C 0,0 km/h
14.04.2024 00:50 16,1 C 69 % 1021,4 hPa 0,0 l/m 0,0 km/h O-SO 112 10,4 C 16,1 C 0,0 km/h
14.04.2024 00:45 16,2 C 69 % 1021,4 hPa 0,0 l/m 0,0 km/h O-SO 112 10,5 C 16,2 C 2,2 km/h
14.04.2024 00:40 16,3 C 69 % 1021,4 hPa 0,0 l/m 1,1 km/h O-SO 112 10,6 C 16,3 C 2,2 km/h
14.04.2024 00:35 16,4 C 68 % 1022,4 hPa 0,0 l/m 0,0 km/h NO 45 10,5 C 16,4 C 0,0 km/h
14.04.2024 00:30 16,4 C 68 % 1021,4 hPa 0,0 l/m 0,0 km/h O-NO 67 10,5 C 16,4 C 0,0 km/h
14.04.2024 00:25 16,5 C 68 % 1021,4 hPa 0,0 l/m 1,8 km/h O-SO 112 10,6 C 16,5 C 2,2 km/h
14.04.2024 00:20 16,6 C 68 % 1021,4 hPa 0,0 l/m 1,4 km/h O-SO 112 10,7 C 16,6 C 2,2 km/h
14.04.2024 00:15 16,7 C 67 % 1021,4 hPa 0,0 l/m 0,0 km/h O-SO 112 10,5 C 16,7 C 0,0 km/h
14.04.2024 00:10 16,8 C 67 % 1022,4 hPa 0,0 l/m 0,7 km/h O-SO 112 10,6 C 16,8 C 2,2 km/h
14.04.2024 00:05 17,0 C 67 % 1022,4 hPa 0,0 l/m 0,0 km/h O-NO 67 10,8 C 17,0 C 0,0 km/h
14.04.2024 00:00 17,1 C 66 % 1021,4 hPa 0,0 l/m 0,0 km/h O-SO 112 10,7 C 17,1 C 0,0 km/h
13.04.2024 23:55 17,3 C 65 % 1021,4 hPa 0,0 l/m 0,0 km/h O-SO 112 10,7 C 17,3 C 0,0 km/h
13.04.2024 23:50 17,4 C 65 % 1022,4 hPa 0,0 l/m 0,7 km/h O-SO 112 10,8 C 17,4 C 2,2 km/h
13.04.2024 23:45 17,6 C 65 % 1022,4 hPa 0,0 l/m 1,1 km/h O-SO 112 10,9 C 17,6 C 2,2 km/h
13.04.2024 23:40 17,7 C 64 % 1022,4 hPa 0,0 l/m 0,4 km/h S-SW 202 10,8 C 17,7 C 2,2 km/h
13.04.2024 23:35 17,9 C 64 % 1022,3 hPa 0,0 l/m 1,1 km/h O 90 11,0 C 17,9 C 2,2 km/h
13.04.2024 23:30 18,0 C 63 % 1022,3 hPa 0,0 l/m 1,8 km/h O 90 10,8 C 18,0 C 2,2 km/h
13.04.2024 23:25 18,2 C 62 % 1022,3 hPa 0,0 l/m 0,0 km/h O-SO 112 10,8 C 18,2 C 0,0 km/h
13.04.2024 23:20 18,3 C 62 % 1022,3 hPa 0,0 l/m 1,1 km/h O-SO 112 10,9 C 18,3 C 2,2 km/h
13.04.2024 23:15 18,5 C 61 % 1022,3 hPa 0,0 l/m 0,0 km/h S-SO 157 10,8 C 18,5 C 0,0 km/h
13.04.2024 23:10 18,7 C 61 % 1022,3 hPa 0,0 l/m 0,0 km/h S-SO 157 11,0 C 18,7 C 0,0 km/h
13.04.2024 23:05 18,8 C 61 % 1022,3 hPa 0,0 l/m 1,4 km/h O-SO 112 11,1 C 18,8 C 2,2 km/h
13.04.2024 23:00 18,9 C 60 % 1022,3 hPa 0,0 l/m 1,8 km/h O-SO 112 11,0 C 18,9 C 2,2 km/h
13.04.2024 22:55 19,1 C 60 % 1022,3 hPa 0,0 l/m 2,2 km/h O-SO 112 11,1 C 19,1 C 4,3 km/h
13.04.2024 22:50 19,2 C 59 % 1022,3 hPa 0,0 l/m 0,0 km/h O 90 11,0 C 19,2 C 0,0 km/h
13.04.2024 22:45 19,4 C 59 % 1022,3 hPa 0,0 l/m 1,4 km/h O 90 11,2 C 19,4 C 2,2 km/h
13.04.2024 22:40 19,5 C 59 % 1022,3 hPa 0,0 l/m 2,2 km/h O-SO 112 11,3 C 19,5 C 4,3 km/h
13.04.2024 22:35 19,7 C 58 % 1022,3 hPa 0,0 l/m 0,7 km/h SO 135 11,2 C 19,7 C 2,2 km/h
13.04.2024 22:30 19,8 C 58 % 1022,3 hPa 0,0 l/m 1,8 km/h O-SO 112 11,3 C 19,8 C 2,2 km/h
13.04.2024 22:25 20,0 C 57 % 1022,2 hPa 0,0 l/m 2,5 km/h O-SO 112 11,2 C 20,0 C 4,3 km/h
13.04.2024 22:20 20,1 C 57 % 1022,2 hPa 0,0 l/m 3,2 km/h SO 135 11,3 C 20,1 C 4,3 km/h
13.04.2024 22:15 20,1 C 57 % 1022,2 hPa 0,0 l/m 2,9 km/h SO 135 11,3 C 20,1 C 4,3 km/h
13.04.2024 22:10 20,1 C 56 % 1022,2 hPa 0,0 l/m 5,4 km/h SO 135 11,0 C 20,1 C 6,5 km/h
13.04.2024 22:05 20,2 C 56 % 1022,2 hPa 0,0 l/m 1,8 km/h SO 135 11,1 C 20,2 C 4,3 km/h
13.04.2024 22:00 20,3 C 56 % 1022,2 hPa 0,0 l/m 1,4 km/h SO 135 11,2 C 20,3 C 2,2 km/h
13.04.2024 21:55 20,3 C 56 % 1022,2 hPa 0,0 l/m 1,1 km/h S-SO 157 11,2 C 20,3 C 2,2 km/h
13.04.2024 21:50 20,4 C 55 % 1022,2 hPa 0,0 l/m 1,8 km/h S-SW 202 11,1 C 20,4 C 4,3 km/h
13.04.2024 21:45 20,4 C 55 % 1022,2 hPa 0,0 l/m 1,1 km/h S-SO 157 11,1 C 20,4 C 2,2 km/h
13.04.2024 21:40 20,5 C 55 % 1022,2 hPa 0,0 l/m 1,1 km/h SO 135 11,1 C 20,5 C 2,2 km/h
13.04.2024 21:35 20,5 C 54 % 1022,2 hPa 0,0 l/m 2,2 km/h S 180 10,9 C 20,5 C 2,2 km/h
13.04.2024 21:30 20,5 C 54 % 1022,2 hPa 0,0 l/m 2,9 km/h SO 135 10,9 C 20,5 C 4,3 km/h
13.04.2024 21:25 20,6 C 54 % 1022,2 hPa 0,0 l/m 1,4 km/h SO 135 11,0 C 20,6 C 2,2 km/h
13.04.2024 21:20 20,7 C 54 % 1022,2 hPa 0,0 l/m 2,9 km/h SO 135 11,1 C 20,7 C 4,3 km/h
13.04.2024 21:15 20,7 C 53 % 1022,2 hPa 0,0 l/m 0,7 km/h S-SO 157 10,8 C 20,7 C 2,2 km/h
13.04.2024 21:10 20,8 C 53 % 1022,2 hPa 0,0 l/m 2,5 km/h S 180 10,9 C 20,8 C 4,3 km/h
13.04.2024 21:05 20,8 C 53 % 1022,2 hPa 0,0 l/m 3,6 km/h SO 135 10,9 C 20,8 C 4,3 km/h
13.04.2024 21:00 20,9 C 53 % 1022,2 hPa 0,0 l/m 1,1 km/h SO 135 11,0 C 20,9 C 2,2 km/h
13.04.2024 20:55 21,1 C 53 % 1022,2 hPa 0,0 l/m 1,1 km/h SO 135 11,1 C 21,1 C 2,2 km/h
13.04.2024 20:50 21,2 C 54 % 1022,2 hPa 0,0 l/m 1,8 km/h S-SO 157 11,5 C 21,2 C 4,3 km/h
13.04.2024 20:45 21,3 C 53 % 1022,2 hPa 0,0 l/m 0,7 km/h S-SO 157 11,3 C 21,3 C 2,2 km/h
13.04.2024 20:40 21,4 C 53 % 1022,2 hPa 0,0 l/m 1,8 km/h SO 135 11,4 C 21,4 C 4,3 km/h
13.04.2024 20:35 21,6 C 52 % 1022,2 hPa 0,0 l/m 0,7 km/h S 180 11,3 C 21,6 C 2,2 km/h
13.04.2024 20:30 21,8 C 52 % 1022,2 hPa 0,0 l/m 0,0 km/h S-SO 157 11,5 C 21,8 C 2,2 km/h
13.04.2024 20:25 21,9 C 52 % 1022,2 hPa 0,0 l/m 1,8 km/h SO 135 11,6 C 21,9 C 4,3 km/h
13.04.2024 20:20 22,0 C 51 % 1022,2 hPa 0,0 l/m 1,8 km/h SO 135 11,4 C 22,0 C 2,2 km/h
13.04.2024 20:15 22,2 C 51 % 1022,1 hPa 0,0 l/m 1,1 km/h SO 135 11,6 C 22,2 C 2,2 km/h
13.04.2024 20:10 22,3 C 51 % 1022,1 hPa 0,0 l/m 0,7 km/h S-SW 202 11,7 C 22,3 C 4,3 km/h
13.04.2024 20:05 22,5 C 50 % 1022,1 hPa 0,0 l/m 0,7 km/h SO 135 11,5 C 22,5 C 2,2 km/h
13.04.2024 20:00 22,7 C 50 % 1022,1 hPa 0,0 l/m 0,7 km/h S 180 11,7 C 22,7 C 2,2 km/h
13.04.2024 19:55 22,9 C 49 % 1022,1 hPa 0,0 l/m 3,6 km/h S-SO 157 11,6 C 22,9 C 6,5 km/h
13.04.2024 19:50 23,1 C 49 % 1022,1 hPa 0,0 l/m 1,8 km/h W-SW 247 11,8 C 23,1 C 2,2 km/h
13.04.2024 19:45 23,3 C 49 % 1022,1 hPa 0,0 l/m 0,7 km/h S 180 12,0 C 23,3 C 2,2 km/h
13.04.2024 19:40 23,5 C 49 % 1022,1 hPa 0,0 l/m 0,7 km/h S-SO 157 12,2 C 23,5 C 2,2 km/h
13.04.2024 19:35 23,7 C 48 % 1022,1 hPa 0,0 l/m 2,9 km/h S 180 12,0 C 23,7 C 4,3 km/h
13.04.2024 19:30 23,9 C 48 % 1022,1 hPa 0,0 l/m 2,2 km/h S-SO 157 12,2 C 23,9 C 2,2 km/h
13.04.2024 19:25 24,1 C 48 % 1022,1 hPa 0,0 l/m 1,8 km/h O-NO 67 12,4 C 24,1 C 6,5 km/h
13.04.2024 19:20 24,2 C 47 % 1022,1 hPa 0,0 l/m 1,8 km/h S-SO 157 12,2 C 24,2 C 4,3 km/h
13.04.2024 19:15 24,3 C 47 % 1022,1 hPa 0,0 l/m 1,4 km/h S-SW 202 12,3 C 24,3 C 2,2 km/h
13.04.2024 19:10 24,4 C 47 % 1022,0 hPa 0,0 l/m 0,7 km/h S-SO 157 12,3 C 24,4 C 2,2 km/h
13.04.2024 19:05 24,6 C 47 % 1022,0 hPa 0,0 l/m 7,6 km/h S 180 12,5 C 24,3 C 8,6 km/h
13.04.2024 19:00 24,7 C 47 % 1022,0 hPa 0,0 l/m 1,4 km/h SW 225 12,6 C 24,7 C 4,3 km/h
13.04.2024 18:55 24,8 C 47 % 1022,0 hPa 0,0 l/m 1,8 km/h S-SW 202 12,7 C 24,8 C 4,3 km/h
13.04.2024 18:50 24,9 C 47 % 1022,0 hPa 0,0 l/m 5,4 km/h S-SO 157 12,8 C 24,9 C 8,6 km/h
13.04.2024 18:45 24,9 C 46 % 1022,0 hPa 0,0 l/m 1,8 km/h S-SW 202 12,5 C 24,9 C 6,5 km/h
13.04.2024 18:40 25,0 C 46 % 1022,0 hPa 0,0 l/m 8,3 km/h S-SW 202 12,6 C 24,5 C 11,2 km/h
13.04.2024 18:35 25,0 C 45 % 1023,0 hPa 0,0 l/m 4,3 km/h S-SO 157 12,2 C 25,0 C 8,6 km/h
13.04.2024 18:30 25,1 C 46 % 1023,0 hPa 0,0 l/m 0,7 km/h S-SO 157 12,7 C 25,1 C 2,2 km/h
13.04.2024 18:25 25,1 C 45 % 1023,0 hPa 0,0 l/m 4,3 km/h S-SW 202 12,3 C 25,1 C 8,6 km/h
13.04.2024 18:20 25,1 C 45 % 1023,0 hPa 0,0 l/m 5,8 km/h SW 225 12,3 C 25,1 C 11,2 km/h
13.04.2024 18:15 25,1 C 45 % 1023,0 hPa 0,0 l/m 3,2 km/h S-SO 157 12,3 C 25,1 C 6,5 km/h
13.04.2024 18:10 25,1 C 45 % 1023,0 hPa 0,0 l/m 8,6 km/h SW 225 12,3 C 24,6 C 11,2 km/h
13.04.2024 18:05 25,2 C 46 % 1023,0 hPa 0,0 l/m 4,0 km/h S-SO 157 12,7 C 25,2 C 4,3 km/h
13.04.2024 18:00 25,2 C 45 % 1023,0 hPa 0,0 l/m 7,9 km/h S-SW 202 12,4 C 24,8 C 11,2 km/h
13.04.2024 17:55 25,3 C 46 % 1023,0 hPa 0,0 l/m 6,1 km/h S-SW 202 12,8 C 25,3 C 8,6 km/h
13.04.2024 17:50 25,2 C 46 % 1023,0 hPa 0,0 l/m 5,0 km/h SW 225 12,7 C 25,2 C 6,5 km/h
13.04.2024 17:45 25,2 C 47 % 1023,0 hPa 0,0 l/m 4,7 km/h S-SW 202 13,1 C 25,2 C 8,6 km/h
13.04.2024 17:40 25,2 C 47 % 1023,0 hPa 0,0 l/m 2,5 km/h S-SW 202 13,1 C 25,2 C 4,3 km/h
13.04.2024 17:35 25,4 C 47 % 1023,0 hPa 0,0 l/m 8,3 km/h S-SW 202 13,3 C 25,0 C 11,2 km/h
13.04.2024 17:30 25,4 C 46 % 1023,0 hPa 0,0 l/m 1,4 km/h SO 135 12,9 C 25,4 C 4,3 km/h
13.04.2024 17:25 25,5 C 46 % 1023,0 hPa 0,0 l/m 2,5 km/h SW 225 13,0 C 25,5 C 4,3 km/h
13.04.2024 17:20 25,5 C 48 % 1023,0 hPa 0,0 l/m 2,2 km/h S 180 13,7 C 25,5 C 4,3 km/h
13.04.2024 17:15 25,4 C 48 % 1023,0 hPa 0,0 l/m 5,4 km/h SO 135 13,6 C 25,4 C 6,5 km/h
13.04.2024 17:10 25,4 C 48 % 1023,0 hPa 0,0 l/m 4,0 km/h W 270 13,6 C 25,4 C 6,5 km/h
13.04.2024 17:05 25,5 C 48 % 1023,0 hPa 0,0 l/m 4,0 km/h SW 225 13,7 C 25,5 C 6,5 km/h
13.04.2024 17:00 25,5 C 48 % 1024,0 hPa 0,0 l/m 6,5 km/h S 180 13,7 C 25,5 C 8,6 km/h
_ Min-Zeit 07:30 18:35 15:50 - 07:55 - - 06:50 07:30 06:30
Minimum _ 14,4 C 45 % 1019,0 hPa - 0,0 km/h - - 9,6 C 14,4 C 0,0 km/h
_ Max-Zeit 17:25 07:45 17:00 16:05 14:00 - - 12:50 17:25 13:30
Maximum _ 25,5 C 74 % 1024,0 hPa 0,0 l/m 14,4 km/h
SW
- - 14,6 C 25,5 C 22,0 km/h
W-SW
Durchschnitt _ 20,1 C 60 % 1021,8 hPa #0,0 l/m 3,3 km/h SO - 11,9 C 20,0 C 5,5 km/h